Time;durP1;ratioP1;P1;durP2;ratioP2;P2;SDS_P1;SDS_P2;PMS_P1;PMS_P2;Temp;Humidity;BMP_temperature;BMP_pressure;BME280_temperature;BME280_humidity;BME280_pressure;Samples;Min_cycle;Max_cycle;Signal;HPM_P1;HPM_P2
2023/07/13 00:02:24;;;;;;;4.60;4.07;;;21.50;66.60;;;;;;5077850;28;20184;-83
2023/07/13 00:04:50;;;;;;;4.70;4.18;;;21.50;66.70;;;;;;5078190;28;20145;-87
2023/07/13 00:07:19;;;;;;;4.20;3.80;;;21.50;66.70;;;;;;5061289;28;20161;-84
2023/07/13 00:09:46;;;;;;;4.30;3.90;;;21.50;66.60;;;;;;5060718;28;20185;-84
2023/07/13 00:12:33;;;;;;;4.57;4.10;;;21.50;66.70;;;;;;5078188;28;20511;-87
2023/07/13 00:15:00;;;;;;;4.60;4.10;;;21.50;66.80;;;;;;5096076;28;20157;-85
2023/07/13 00:17:30;;;;;;;4.18;3.78;;;21.50;66.80;;;;;;5078002;28;20149;-86
2023/07/13 00:19:57;;;;;;;4.38;3.97;;;21.50;66.80;;;;;;5027510;28;20184;-83
2023/07/13 00:22:25;;;;;;;4.28;3.88;;;21.50;66.80;;;;;;5061420;28;20646;-83
2023/07/13 00:24:52;;;;;;;4.45;4.00;;;21.50;66.70;;;;;;5077864;28;20157;-82
2023/07/13 00:27:18;;;;;;;4.63;4.03;;;21.50;66.80;;;;;;5060839;28;20545;-85
2023/07/13 00:29:44;;;;;;;4.57;4.18;;;21.50;66.70;;;;;;5061155;28;20165;-87
2023/07/13 00:32:11;;;;;;;4.55;3.90;;;21.50;66.80;;;;;;5077401;28;20619;-83
2023/07/13 00:34:38;;;;;;;5.22;4.45;;;21.50;66.70;;;;;;5077807;28;20673;-83
2023/07/13 00:37:06;;;;;;;4.18;3.78;;;21.50;66.80;;;;;;5077167;28;20165;-86
2023/07/13 00:39:32;;;;;;;4.80;4.30;;;21.50;66.80;;;;;;5061333;28;20149;-87
2023/07/13 00:41:59;;;;;;;4.68;4.20;;;21.50;66.80;;;;;;5077431;28;20185;-85
2023/07/13 00:44:25;;;;;;;4.57;4.00;;;21.50;66.70;;;;;;5095265;28;20145;-82
2023/07/13 00:46:51;;;;;;;4.50;4.10;;;21.50;66.80;;;;;;5077597;28;20314;-83
2023/07/13 00:49:19;;;;;;;4.28;3.88;;;21.50;66.70;;;;;;5077069;28;20512;-87
2023/07/13 00:51:55;;;;;;;4.38;3.97;;;21.50;66.70;;;;;;5077071;28;20176;-87
2023/07/13 00:54:33;;;;;;;4.43;4.03;;;21.50;66.80;;;;;;5077454;28;20180;-83
2023/07/13 00:57:01;;;;;;;4.32;3.90;;;21.50;66.80;;;;;;5095333;28;20163;-83
2023/07/13 00:59:28;;;;;;;4.72;4.20;;;21.50;66.80;;;;;;5060193;28;20171;-84
2023/07/13 01:01:57;;;;;;;4.47;4.03;;;21.50;66.80;;;;;;5060250;28;20192;-83
2023/07/13 01:04:25;;;;;;;4.65;4.18;;;21.40;66.90;;;;;;5043289;28;20173;-84
2023/07/13 01:06:51;;;;;;;4.70;4.20;;;21.50;66.80;;;;;;5076760;28;20149;-83
2023/07/13 01:09:17;;;;;;;4.75;4.30;;;21.50;66.70;;;;;;5076405;28;20161;-85
2023/07/13 01:11:47;;;;;;;4.60;4.10;;;21.50;66.90;;;;;;5076736;28;20169;-83
2023/07/13 01:14:17;;;;;;;4.40;4.00;;;21.40;66.70;;;;;;5026285;28;20188;-83
2023/07/13 01:16:48;;;;;;;4.97;4.47;;;21.50;66.80;;;;;;5026212;28;20208;-86
2023/07/13 01:19:39;;;;;;;4.60;4.20;;;21.50;66.70;;;;;;5043069;28;20189;-83
2023/07/13 01:22:12;;;;;;;4.55;4.10;;;21.50;66.70;;;;;;5095248;28;20635;-88
2023/07/13 01:24:39;;;;;;;4.78;4.35;;;21.50;66.70;;;;;;5026899;28;20221;-84
2023/07/13 01:27:09;;;;;;;4.28;3.88;;;21.50;66.90;;;;;;5076668;28;20156;-84
2023/07/13 01:29:41;;;;;;;4.35;3.95;;;21.50;66.90;;;;;;5026181;28;20208;-86
2023/07/13 01:32:22;;;;;;;4.50;4.10;;;21.50;66.80;;;;;;5060172;28;20584;-85
2023/07/13 01:34:48;;;;;;;4.40;4.00;;;21.40;66.80;;;;;;5030665;28;20229;-83
2023/07/13 01:37:14;;;;;;;4.32;3.88;;;21.50;66.90;;;;;;5055883;28;20300;-86
2023/07/13 01:39:40;;;;;;;4.40;4.00;;;21.50;66.90;;;;;;5074272;28;20779;-85
2023/07/13 01:42:06;;;;;;;4.13;3.72;;;21.50;66.90;;;;;;5056344;28;20686;-86
2023/07/13 01:44:32;;;;;;;4.75;4.32;;;21.50;66.90;;;;;;5056288;28;20169;-85
2023/07/13 01:47:02;;;;;;;4.40;4.00;;;21.50;66.90;;;;;;5072792;28;20150;-85
2023/07/13 01:49:28;;;;;;;4.40;4.00;;;21.50;66.80;;;;;;5006121;28;20180;-87
2023/07/13 01:51:54;;;;;;;4.25;3.85;;;21.50;66.80;;;;;;5073763;28;20166;-83
2023/07/13 01:54:20;;;;;;;4.45;4.05;;;21.50;66.90;;;;;;5072577;28;20620;-87
2023/07/13 01:56:50;;;;;;;4.43;4.03;;;21.50;67.00;;;;;;5073750;28;20154;-86
2023/07/13 01:59:16;;;;;;;4.63;4.10;;;21.50;66.90;;;;;;5038636;28;20185;-84
2023/07/13 02:01:42;;;;;;;4.50;4.10;;;21.50;66.90;;;;;;5073673;28;20211;-84
2023/07/13 02:04:08;;;;;;;4.57;4.10;;;21.50;66.80;;;;;;5072230;28;20164;-83
2023/07/13 02:06:34;;;;;;;4.43;4.03;;;21.50;66.90;;;;;;5072357;28;20154;-83
2023/07/13 02:09:00;;;;;;;4.85;4.35;;;21.40;66.80;;;;;;5073642;28;20150;-84
2023/07/13 02:11:32;;;;;;;4.75;4.25;;;21.50;66.90;;;;;;5055618;28;20232;-87
2023/07/13 02:14:00;;;;;;;4.55;4.05;;;21.50;66.90;;;;;;5072279;28;20161;-87
2023/07/13 02:16:26;;;;;;;4.95;4.10;;;21.50;66.90;;;;;;5072372;28;20149;-86
2023/07/13 02:18:52;;;;;;;4.40;4.00;;;21.40;66.90;;;;;;5055005;28;20620;-85
2023/07/13 02:21:18;;;;;;;4.43;4.03;;;21.40;66.90;;;;;;5072239;28;20154;-84
2023/07/13 02:23:44;;;;;;;4.50;4.10;;;21.40;66.90;;;;;;5072015;28;20652;-84
2023/07/13 02:26:10;;;;;;;4.32;3.92;;;21.40;67.00;;;;;;5055416;28;20157;-86
2023/07/13 02:28:36;;;;;;;4.10;3.70;;;21.40;67.00;;;;;;5072198;28;20621;-82
2023/07/13 02:31:07;;;;;;;4.20;3.80;;;21.40;66.90;;;;;;5071901;28;20157;-87
2023/07/13 02:33:32;;;;;;;4.57;4.18;;;21.40;66.90;;;;;;5055277;28;20161;-81
2023/07/13 02:35:58;;;;;;;4.60;4.20;;;21.40;66.90;;;;;;5073422;28;20180;-84
2023/07/13 02:38:24;;;;;;;4.40;4.00;;;21.40;66.90;;;;;;5055112;28;20686;-86
2023/07/13 02:40:51;;;;;;;4.53;4.13;;;21.40;67.00;;;;;;5071955;28;20632;-86
2023/07/13 02:43:17;;;;;;;4.30;3.90;;;21.40;67.00;;;;;;5071960;28;20268;-85
2023/07/13 02:45:44;;;;;;;4.20;3.85;;;21.40;66.90;;;;;;5072176;28;20232;-81
2023/07/13 02:48:14;;;;;;;4.50;4.10;;;21.50;67.00;;;;;;5071976;28;20185;-85
2023/07/13 02:50:40;;;;;;;4.30;3.90;;;21.40;66.90;;;;;;5038184;28;20188;-85
2023/07/13 02:53:06;;;;;;;4.18;3.80;;;21.40;66.90;;;;;;5073318;28;20162;-87
2023/07/13 02:55:32;;;;;;;5.00;4.50;;;21.40;66.90;;;;;;5073358;28;20158;-86
2023/07/13 02:57:58;;;;;;;4.60;4.20;;;21.40;67.00;;;;;;5055089;28;20169;-86
2023/07/13 03:00:24;;;;;;;4.15;3.75;;;21.40;67.10;;;;;;5073042;28;20624;-86
2023/07/13 03:02:50;;;;;;;4.78;4.38;;;21.40;67.00;;;;;;5071752;28;20185;-84
2023/07/13 03:05:16;;;;;;;4.90;4.40;;;21.40;67.00;;;;;;5072009;28;20549;-82
2023/07/13 03:07:43;;;;;;;4.32;3.92;;;21.40;67.00;;;;;;5073042;28;20160;-87
2023/07/13 03:10:09;;;;;;;4.97;4.53;;;21.40;67.00;;;;;;5055367;28;20628;-86
2023/07/13 03:12:35;;;;;;;4.20;3.80;;;21.40;67.00;;;;;;5071668;28;20627;-85
2023/07/13 03:15:02;;;;;;;4.50;4.10;;;21.40;67.00;;;;;;5073073;28;20166;-87
2023/07/13 03:17:27;;;;;;;4.35;3.95;;;21.40;67.00;;;;;;5071621;28;20185;-85
2023/07/13 03:19:54;;;;;;;4.40;4.00;;;21.40;67.00;;;;;;5073144;28;20219;-83
2023/07/13 03:22:21;;;;;;;4.03;3.67;;;21.40;66.90;;;;;;5072673;28;20182;-81
2023/07/13 03:24:48;;;;;;;4.25;3.85;;;21.40;66.90;;;;;;5071655;28;20152;-84
2023/07/13 03:27:17;;;;;;;4.72;4.22;;;21.40;66.90;;;;;;5055036;28;20176;-84
2023/07/13 03:29:43;;;;;;;4.80;4.30;;;21.40;66.90;;;;;;5071513;28;20145;-85
2023/07/13 03:32:13;;;;;;;4.63;4.22;;;21.40;67.00;;;;;;5057578;28;20169;-87
2023/07/13 03:34:39;;;;;;;4.47;4.07;;;21.40;67.00;;;;;;5041499;28;20188;-84
2023/07/13 03:37:05;;;;;;;4.35;3.95;;;21.40;66.90;;;;;;5077500;28;20164;-83
2023/07/13 03:39:31;;;;;;;4.53;3.92;;;21.40;66.90;;;;;;5078439;28;20177;-85
2023/07/13 03:42:02;;;;;;;4.60;4.20;;;21.40;66.90;;;;;;5078483;28;20192;-89
2023/07/13 03:44:28;;;;;;;4.18;3.78;;;21.40;66.90;;;;;;5028141;28;20665;-88
2023/07/13 03:46:57;;;;;;;4.45;4.05;;;21.40;66.70;;;;;;5078654;28;20175;-84
2023/07/13 03:49:23;;;;;;;4.40;4.00;;;21.40;66.70;;;;;;5027995;28;20306;-84
2023/07/13 03:51:49;;;;;;;5.05;4.20;;;21.50;66.70;;;;;;5096389;28;20597;-86
2023/07/13 03:54:16;;;;;;;4.47;4.07;;;21.50;66.70;;;;;;5061453;28;20196;-81
2023/07/13 03:56:41;;;;;;;4.45;4.05;;;21.40;66.70;;;;;;5078148;28;20172;-84
2023/07/13 03:59:07;;;;;;;4.38;3.95;;;21.40;66.80;;;;;;5078137;28;20516;-83
2023/07/13 04:01:33;;;;;;;4.20;3.80;;;21.40;66.90;;;;;;5061605;28;20168;-88
2023/07/13 04:03:59;;;;;;;4.22;3.80;;;21.50;66.90;;;;;;5077912;28;20204;-84
2023/07/13 04:06:28;;;;;;;4.65;4.22;;;21.30;66.70;;;;;;5061256;28;20161;-85
2023/07/13 04:08:56;;;;;;;4.68;4.10;;;21.50;66.90;;;;;;5078379;28;20152;-84
2023/07/13 04:11:23;;;;;;;4.22;3.83;;;21.40;66.90;;;;;;5061279;28;20161;-86
2023/07/13 04:13:49;;;;;;;4.72;4.30;;;21.40;66.90;;;;;;5078089;28;20161;-83
2023/07/13 04:16:16;;;;;;;4.30;3.90;;;21.40;66.80;;;;;;5061629;28;20168;-84
2023/07/13 04:18:42;;;;;;;4.45;4.05;;;21.50;66.80;;;;;;5061512;28;20173;-88
2023/07/13 04:21:13;;;;;;;4.20;3.80;;;21.40;66.90;;;;;;5095933;28;20563;-84
2023/07/13 04:23:39;;;;;;;4.38;3.97;;;21.40;66.80;;;;;;5043879;28;20333;-83
2023/07/13 04:26:06;;;;;;;4.53;4.13;;;21.30;66.70;;;;;;5077687;28;20167;-87
2023/07/13 04:28:32;;;;;;;4.00;3.60;;;21.40;66.60;;;;;;5061459;28;20285;-86
2023/07/13 04:30:57;;;;;;;4.05;3.65;;;21.40;66.70;;;;;;5060740;28;20631;-81
2023/07/13 04:33:23;;;;;;;4.45;4.05;;;21.40;66.70;;;;;;5061053;28;20172;-84
2023/07/13 04:35:54;;;;;;;4.50;4.10;;;21.40;66.60;;;;;;5095410;28;20638;-87
2023/07/13 04:38:20;;;;;;;4.40;4.00;;;21.50;66.60;;;;;;5095294;28;20220;-83
2023/07/13 04:40:46;;;;;;;4.13;3.72;;;21.50;66.50;;;;;;5077609;28;20165;-82
2023/07/13 04:43:12;;;;;;;4.60;3.95;;;21.50;66.50;;;;;;5076984;28;20192;-82
2023/07/13 04:45:38;;;;;;;3.92;3.63;;;21.50;66.50;;;;;;5077332;28;20152;-84
2023/07/13 04:48:05;;;;;;;4.70;3.95;;;21.50;66.30;;;;;;5095259;28;20149;-86
2023/07/13 04:50:31;;;;;;;4.20;3.80;;;21.50;66.20;;;;;;5060884;28;20647;-85
2023/07/13 04:52:58;;;;;;;4.30;3.90;;;21.50;66.20;;;;;;5095137;28;20214;-83
2023/07/13 04:55:23;;;;;;;4.00;3.60;;;21.50;66.10;;;;;;5060471;28;20165;-85
2023/07/13 04:57:49;;;;;;;4.20;3.80;;;21.50;66.20;;;;;;5077126;28;20176;-86
2023/07/13 05:00:16;;;;;;;4.30;3.90;;;21.50;66.20;;;;;;5076879;28;20532;-85
2023/07/13 05:02:44;;;;;;;5.35;4.45;;;21.60;66.10;;;;;;5076677;28;20192;-87
2023/07/13 05:05:10;;;;;;;4.32;3.92;;;21.60;66.20;;;;;;5076941;28;20152;-86
2023/07/13 05:07:36;;;;;;;4.28;3.88;;;21.50;66.10;;;;;;5095114;28;20228;-84
2023/07/13 05:10:03;;;;;;;4.18;3.75;;;21.60;66.10;;;;;;5060460;28;20715;-86
2023/07/13 05:12:30;;;;;;;4.50;4.10;;;21.60;65.80;;;;;;5077054;28;20165;-83
2023/07/13 05:14:56;;;;;;;4.10;3.70;;;21.60;65.70;;;;;;5060200;28;20180;-81
2023/07/13 05:17:22;;;;;;;4.35;3.83;;;21.60;65.70;;;;;;5094661;28;20163;-85
2023/07/13 05:19:48;;;;;;;4.35;3.95;;;21.70;65.70;;;;;;5060433;28;20251;-84
2023/07/13 05:22:14;;;;;;;4.10;3.70;;;21.60;65.60;;;;;;5076396;28;20305;-83
2023/07/13 05:24:40;;;;;;;4.20;3.80;;;21.70;65.70;;;;;;5094490;28;20509;-83
2023/07/13 05:27:06;;;;;;;4.13;3.72;;;21.70;65.70;;;;;;5076821;28;20214;-82
2023/07/13 05:29:32;;;;;;;4.28;3.88;;;21.70;65.70;;;;;;5076717;28;20153;-86
2023/07/13 05:31:58;;;;;;;4.80;4.30;;;21.70;65.60;;;;;;5076901;28;20163;-86
2023/07/13 05:34:24;;;;;;;4.38;3.97;;;21.70;65.70;;;;;;5076491;28;20682;-84
2023/07/13 05:36:50;;;;;;;4.32;3.92;;;21.70;65.40;;;;;;5094141;28;20244;-88
2023/07/13 05:39:16;;;;;;;4.07;3.67;;;21.70;65.40;;;;;;5076101;28;20272;-86
2023/07/13 05:41:42;;;;;;;3.92;3.60;;;21.80;65.60;;;;;;5076132;28;20157;-87
2023/07/13 05:44:08;;;;;;;3.88;3.47;;;21.70;65.60;;;;;;5094225;28;20164;-85
2023/07/13 05:46:34;;;;;;;4.03;3.58;;;21.80;65.40;;;;;;5059376;28;20176;-84
2023/07/13 05:49:00;;;;;;;3.45;3.13;;;21.80;65.20;;;;;;5075974;28;20227;-87
2023/07/13 05:51:27;;;;;;;4.10;3.70;;;21.80;65.20;;;;;;5059740;28;20172;-82
2023/07/13 05:53:53;;;;;;;3.78;3.47;;;21.80;65.10;;;;;;5075464;28;20161;-84
2023/07/13 05:56:19;;;;;;;4.07;3.67;;;21.80;65.40;;;;;;5059380;28;20177;-88
2023/07/13 05:58:44;;;;;;;3.90;3.50;;;21.80;65.30;;;;;;5076361;28;20519;-87
2023/07/13 06:01:12;;;;;;;3.45;3.15;;;21.80;65.50;;;;;;5058992;28;20204;-85
2023/07/13 06:03:38;;;;;;;3.60;3.20;;;21.80;65.40;;;;;;5093759;28;20651;-86
2023/07/13 06:06:05;;;;;;;3.22;2.75;;;21.70;65.30;;;;;;5059795;28;20178;-85
2023/07/13 06:08:31;;;;;;;3.45;3.15;;;21.80;65.10;;;;;;5059359;28;20176;-87
2023/07/13 06:11:16;;;;;;;3.25;2.97;;;21.80;64.80;;;;;;5075761;28;20149;-89
2023/07/13 06:13:42;;;;;;;3.47;3.17;;;21.80;65.10;;;;;;5093907;28;20206;-82
2023/07/13 06:16:08;;;;;;;3.08;2.78;;;21.80;65.00;;;;;;5075632;28;20153;-85
2023/07/13 06:18:35;;;;;;;3.90;3.13;;;21.80;65.00;;;;;;5075542;28;20149;-86
2023/07/13 06:21:05;;;;;;;3.33;3.03;;;21.90;64.90;;;;;;5076081;28;20160;-85
2023/07/13 06:23:31;;;;;;;3.65;3.13;;;21.80;64.80;;;;;;5093491;28;20230;-84
2023/07/13 06:25:57;;;;;;;3.15;2.85;;;21.80;65.20;;;;;;5058835;28;20574;-83
2023/07/13 06:28:23;;;;;;;3.45;3.15;;;21.80;65.20;;;;;;5058734;28;20648;-82
2023/07/13 06:30:49;;;;;;;3.40;3.10;;;21.80;64.90;;;;;;5058973;28;20260;-84
2023/07/13 06:33:15;;;;;;;3.45;2.90;;;21.80;65.00;;;;;;5075389;28;20168;-83
2023/07/13 06:35:41;;;;;;;3.25;2.95;;;21.80;64.90;;;;;;5058663;28;20183;-83
2023/07/13 06:38:07;;;;;;;3.17;2.88;;;21.80;65.00;;;;;;5093241;28;20208;-87
2023/07/13 06:40:33;;;;;;;3.40;3.10;;;21.80;64.70;;;;;;5042003;28;20176;-87
2023/07/13 06:42:59;;;;;;;3.47;3.17;;;21.90;64.70;;;;;;5093230;28;20270;-87
2023/07/13 06:45:25;;;;;;;3.35;2.97;;;21.80;64.80;;;;;;5075547;28;20269;-82
2023/07/13 06:47:51;;;;;;;3.28;2.97;;;21.80;64.90;;;;;;5093306;28;20179;-85
2023/07/13 06:50:17;;;;;;;3.15;2.85;;;21.80;64.90;;;;;;5093215;28;20617;-85
2023/07/13 06:52:43;;;;;;;3.28;2.97;;;21.70;64.70;;;;;;5058437;28;20175;-87
2023/07/13 06:55:09;;;;;;;3.30;3.00;;;21.90;64.60;;;;;;5075091;28;20172;-85
2023/07/13 06:57:35;;;;;;;3.20;2.90;;;21.80;64.60;;;;;;5058287;28;20256;-85
2023/07/13 07:00:01;;;;;;;3.53;3.20;;;21.80;64.60;;;;;;5058954;28;20282;-85
2023/07/13 07:02:31;;;;;;;3.03;2.72;;;21.80;64.70;;;;;;5093080;28;20276;-85
2023/07/13 07:04:57;;;;;;;2.90;2.60;;;21.80;64.50;;;;;;5008937;28;20588;-85
2023/07/13 07:07:25;;;;;;;3.08;2.78;;;21.80;64.70;;;;;;5062797;28;20569;-88
2023/07/13 07:09:51;;;;;;;2.70;2.50;;;21.80;64.70;;;;;;5079158;28;20619;-83
2023/07/13 07:12:17;;;;;;;2.92;2.60;;;21.80;64.70;;;;;;5079391;28;20176;-85
2023/07/13 07:14:42;;;;;;;3.10;2.80;;;21.90;64.60;;;;;;5079087;28;20567;-84
2023/07/13 07:17:09;;;;;;;3.03;2.72;;;21.80;64.50;;;;;;5097156;28;20166;-83
2023/07/13 07:19:35;;;;;;;3.00;2.70;;;21.80;64.50;;;;;;5078936;28;20205;-86
2023/07/13 07:22:01;;;;;;;2.90;2.70;;;21.80;64.50;;;;;;5062053;28;20168;-82
2023/07/13 07:24:27;;;;;;;3.33;3.03;;;21.80;64.50;;;;;;5062108;28;20171;-84
2023/07/13 07:26:53;;;;;;;2.88;2.67;;;21.70;64.70;;;;;;5062837;28;20173;-85
2023/07/13 07:29:19;;;;;;;2.90;2.70;;;21.80;64.70;;;;;;5061941;28;20666;-88
2023/07/13 07:31:45;;;;;;;2.80;2.60;;;21.70;64.70;;;;;;5096809;28;20171;-85
2023/07/13 07:34:11;;;;;;;3.22;2.92;;;21.70;64.90;;;;;;5096731;28;20562;-85
2023/07/13 07:36:37;;;;;;;2.50;2.30;;;21.70;64.90;;;;;;5078561;28;20563;-85
2023/07/13 07:39:03;;;;;;;3.60;2.88;;;21.70;64.50;;;;;;5078462;28;20227;-85
2023/07/13 07:41:29;;;;;;;2.97;2.78;;;21.90;64.40;;;;;;5096526;28;20157;-85
2023/07/13 07:43:55;;;;;;;2.47;2.28;;;21.80;64.40;;;;;;5096813;28;20546;-85
2023/07/13 07:46:21;;;;;;;2.80;2.60;;;21.90;64.30;;;;;;5061779;28;20172;-84
2023/07/13 07:48:46;;;;;;;2.60;2.40;;;21.80;64.30;;;;;;5096433;28;20207;-85
2023/07/13 07:51:13;;;;;;;2.70;2.50;;;21.80;64.20;;;;;;5078634;28;20536;-86
2023/07/13 07:53:38;;;;;;;2.85;2.50;;;21.90;64.00;;;;;;5096395;28;20157;-87
2023/07/13 07:56:04;;;;;;;2.70;2.50;;;21.80;64.30;;;;;;5078220;28;20167;-85
2023/07/13 07:58:30;;;;;;;2.90;2.70;;;21.80;64.50;;;;;;5096494;28;20527;-84
2023/07/13 08:01:16;;;;;;;3.03;2.83;;;21.70;64.50;;;;;;5078514;28;20218;-84
2023/07/13 08:03:42;;;;;;;2.80;2.50;;;21.80;64.50;;;;;;5027945;28;20218;-85
2023/07/13 08:06:08;;;;;;;2.88;2.63;;;21.70;64.50;;;;;;5078374;28;20153;-86
2023/07/13 08:08:35;;;;;;;2.70;2.50;;;21.80;64.50;;;;;;5061520;28;20649;-85
2023/07/13 08:11:03;;;;;;;2.75;2.55;;;21.70;64.60;;;;;;5078317;28;20164;-85
2023/07/13 08:13:29;;;;;;;2.70;2.50;;;21.70;64.60;;;;;;5061654;28;20587;-82
2023/07/13 08:15:55;;;;;;;2.58;2.38;;;21.70;64.40;;;;;;5095921;28;20680;-85
2023/07/13 08:18:22;;;;;;;2.80;2.60;;;21.80;64.30;;;;;;5095503;28;20179;-85
2023/07/13 08:20:47;;;;;;;2.63;2.42;;;21.80;64.30;;;;;;5061279;28;20176;-84
2023/07/13 08:23:14;;;;;;;3.00;2.70;;;21.80;64.10;;;;;;5077965;28;20185;-86
2023/07/13 08:25:39;;;;;;;3.03;2.72;;;21.70;64.50;;;;;;5061155;28;20172;-83
2023/07/13 08:28:05;;;;;;;2.78;2.58;;;21.60;64.50;;;;;;5078662;28;20168;-85
2023/07/13 08:30:31;;;;;;;3.30;3.00;;;21.70;64.70;;;;;;5077863;28;20259;-86
2023/07/13 08:32:57;;;;;;;2.55;2.35;;;21.70;64.40;;;;;;5078313;28;20169;-84
2023/07/13 08:35:25;;;;;;;2.72;2.53;;;21.60;64.00;;;;;;5077720;28;20638;-87
2023/07/13 08:37:51;;;;;;;2.60;2.40;;;21.80;64.00;;;;;;5095463;28;20212;-87
2023/07/13 08:40:17;;;;;;;2.50;2.30;;;21.80;64.00;;;;;;5078309;28;20172;-83
2023/07/13 08:42:51;;;;;;;2.50;2.30;;;21.80;63.80;;;;;;5078118;28;20184;-83
2023/07/13 08:45:42;;;;;;;2.60;2.40;;;21.80;63.40;;;;;;5096487;28;20153;-86
2023/07/13 08:48:14;;;;;;;2.70;2.40;;;21.80;63.40;;;;;;5078367;28;20576;-82
2023/07/13 08:50:48;;;;;;;2.72;2.50;;;21.90;63.60;;;;;;5061941;28;20175;-85
2023/07/13 08:53:15;;;;;;;2.53;2.33;;;21.80;63.70;;;;;;5078815;28;20172;-86
2023/07/13 08:55:41;;;;;;;2.60;2.40;;;21.90;63.30;;;;;;5096720;28;20210;-85
2023/07/13 08:58:12;;;;;;;2.45;2.25;;;21.80;63.20;;;;;;5096284;28;20157;-85
2023/07/13 09:00:59;;;;;;;2.42;2.22;;;21.90;63.20;;;;;;5078118;28;20160;-84
2023/07/13 09:03:29;;;;;;;2.92;2.70;;;22.00;62.70;;;;;;5061471;28;20192;-86
2023/07/13 09:05:57;;;;;;;2.60;2.40;;;22.00;62.80;;;;;;5077624;28;20637;-84
2023/07/13 09:08:53;;;;;;;2.45;2.25;;;22.00;62.40;;;;;;5077309;28;20153;-85
2023/07/13 09:11:29;;;;;;;3.25;2.95;;;21.90;62.40;;;;;;5097119;28;20161;-84
2023/07/13 09:14:06;;;;;;;2.65;2.45;;;21.90;62.90;;;;;;5062593;28;20176;-84
2023/07/13 09:16:33;;;;;;;2.50;2.30;;;21.80;62.90;;;;;;5078989;28;20188;-85
2023/07/13 09:19:04;;;;;;;2.60;2.40;;;21.70;63.80;;;;;;5080144;28;20160;-86
2023/07/13 09:21:34;;;;;;;2.30;2.10;;;21.80;63.20;;;;;;5097920;28;20181;-83
2023/07/13 09:24:21;;;;;;;2.50;2.30;;;21.80;63.10;;;;;;5078694;28;20177;-84
2023/07/13 09:26:47;;;;;;;2.38;2.17;;;21.70;63.20;;;;;;5096175;28;20183;-83
2023/07/13 09:29:26;;;;;;;2.38;2.17;;;21.90;62.70;;;;;;5078278;28;20157;-85
2023/07/13 09:31:54;;;;;;;2.40;2.20;;;21.90;62.80;;;;;;5031146;28;20180;-86
2023/07/13 09:34:24;;;;;;;2.28;2.10;;;21.90;62.80;;;;;;5078715;28;20160;-86
2023/07/13 09:36:50;;;;;;;2.50;2.30;;;21.80;62.60;;;;;;5045922;28;20708;-85
2023/07/13 09:39:30;;;;;;;2.22;2.03;;;21.80;62.80;;;;;;5080615;28;20164;-87
2023/07/13 09:42:18;;;;;;;2.42;2.20;;;21.80;62.20;;;;;;5013425;28;20180;-88
2023/07/13 09:44:54;;;;;;;2.25;2.05;;;21.90;62.20;;;;;;5066390;28;20149;-84
2023/07/13 09:47:29;;;;;;;2.30;2.10;;;21.90;62.30;;;;;;5079892;28;20527;-85
2023/07/13 09:49:58;;;;;;;2.30;2.10;;;21.90;61.80;;;;;;5046170;28;20187;-83
2023/07/13 09:52:24;;;;;;;2.40;2.20;;;22.00;61.70;;;;;;5063407;28;20190;-85
2023/07/13 09:54:59;;;;;;;2.75;2.47;;;22.00;61.60;;;;;;5062700;28;20172;-83
2023/07/13 09:57:27;;;;;;;2.05;1.92;;;22.00;61.40;;;;;;5047698;28;20275;-85
2023/07/13 09:59:56;;;;;;;2.50;2.30;;;22.00;61.40;;;;;;5079557;28;20167;-84
2023/07/13 10:02:29;;;;;;;2.53;2.30;;;22.00;61.50;;;;;;5078844;28;20176;-83
2023/07/13 10:05:01;;;;;;;2.33;2.13;;;22.10;61.20;;;;;;5078093;28;20168;-84
2023/07/13 10:07:27;;;;;;;2.42;2.10;;;21.90;61.30;;;;;;5045065;28;20569;-84
2023/07/13 10:09:54;;;;;;;2.33;2.13;;;22.00;61.10;;;;;;5096609;28;20156;-84
2023/07/13 10:12:23;;;;;;;2.53;2.33;;;21.90;61.00;;;;;;5078374;28;20177;-84
2023/07/13 10:14:51;;;;;;;2.40;2.20;;;22.00;61.00;;;;;;5060857;28;20609;-84
2023/07/13 10:17:17;;;;;;;2.00;1.90;;;22.00;61.10;;;;;;5076605;28;20624;-85
2023/07/13 10:19:44;;;;;;;2.22;2.03;;;22.00;61.10;;;;;;5076483;28;20164;-85
2023/07/13 10:22:19;;;;;;;1.90;1.80;;;22.00;60.70;;;;;;5059615;28;20171;-83
2023/07/13 10:24:45;;;;;;;1.92;1.83;;;22.00;60.80;;;;;;5094536;28;20178;-87
2023/07/13 10:27:25;;;;;;;2.25;2.05;;;22.00;60.60;;;;;;5060238;28;20522;-83
2023/07/13 10:30:13;;;;;;;2.00;1.90;;;22.10;60.40;;;;;;5059806;28;20248;-83
2023/07/13 10:32:44;;;;;;;2.25;2.05;;;22.00;60.30;;;;;;5033357;28;20180;-84
2023/07/13 10:35:11;;;;;;;2.30;2.10;;;22.10;60.30;;;;;;5042790;28;20207;-85
2023/07/13 10:37:57;;;;;;;2.28;2.08;;;22.10;60.20;;;;;;5095020;28;20261;-84
2023/07/13 10:40:26;;;;;;;1.98;1.88;;;22.10;60.20;;;;;;5043643;28;20177;-87
2023/07/13 10:42:52;;;;;;;2.08;1.90;;;22.10;60.10;;;;;;5059398;28;20286;-84
2023/07/13 10:45:24;;;;;;;2.10;1.90;;;22.10;59.90;;;;;;5076488;28;20170;-81
2023/07/13 10:47:52;;;;;;;2.38;2.10;;;22.10;60.00;;;;;;5042296;28;20176;-85
2023/07/13 10:50:25;;;;;;;1.90;1.80;;;22.10;59.90;;;;;;5043042;28;20168;-86
2023/07/13 10:52:54;;;;;;;2.47;2.13;;;22.10;59.80;;;;;;5076800;28;20176;-83
2023/07/13 10:55:38;;;;;;;2.15;1.95;;;22.10;59.90;;;;;;5076771;28;20157;-84
2023/07/13 10:58:22;;;;;;;2.03;1.90;;;22.10;59.80;;;;;;5076133;28;20247;-84
2023/07/13 11:01:10;;;;;;;2.17;1.98;;;22.20;59.90;;;;;;5075821;28;20175;-85
2023/07/13 11:03:47;;;;;;;1.95;1.85;;;22.10;59.80;;;;;;5062415;28;20193;-83
2023/07/13 11:06:17;;;;;;;1.98;1.88;;;22.10;59.60;;;;;;5076793;28;20621;-89
2023/07/13 11:08:56;;;;;;;1.90;1.80;;;22.10;59.60;;;;;;5075249;28;20606;-83
2023/07/13 11:11:38;;;;;;;1.85;1.75;;;22.20;59.40;;;;;;5093066;28;20232;-85
2023/07/13 11:14:14;;;;;;;2.20;2.00;;;22.20;59.40;;;;;;5058532;28;20534;-86
2023/07/13 11:16:47;;;;;;;2.53;2.15;;;22.20;59.40;;;;;;5075899;28;20165;-84
2023/07/13 11:19:27;;;;;;;2.20;2.00;;;22.10;59.50;;;;;;5075068;28;20169;-82
2023/07/13 11:22:11;;;;;;;2.28;2.08;;;22.10;59.60;;;;;;5093574;28;20522;-83
2023/07/13 11:25:00;;;;;;;2.17;1.98;;;22.10;59.50;;;;;;5075529;28;20153;-84
2023/07/13 11:27:38;;;;;;;2.30;2.13;;;22.10;59.30;;;;;;5058561;28;20252;-83
2023/07/13 11:30:24;;;;;;;2.97;1.95;;;22.20;59.10;;;;;;5026049;28;20203;-86
2023/07/13 11:32:52;;;;;;;1.80;1.70;;;22.20;58.90;;;;;;5094104;28;20564;-85
2023/07/13 11:35:23;;;;;;;2.42;2.22;;;22.20;59.00;;;;;;5076540;28;20157;-84
2023/07/13 11:37:49;;;;;;;2.25;1.92;;;22.10;59.00;;;;;;5059196;28;20224;-85
2023/07/13 11:40:15;;;;;;;2.20;2.00;;;22.10;59.10;;;;;;5058194;28;20530;-86
2023/07/13 11:42:41;;;;;;;1.92;1.80;;;22.20;59.10;;;;;;5074747;28;20195;-88
2023/07/13 11:45:19;;;;;;;2.65;2.42;;;22.20;59.10;;;;;;5075334;28;20232;-87
2023/07/13 11:47:45;;;;;;;1.90;1.80;;;22.20;59.10;;;;;;5074759;28;20584;-84
2023/07/13 11:50:20;;;;;;;1.90;1.77;;;22.20;58.90;;;;;;5074947;28;20690;-83
2023/07/13 11:52:46;;;;;;;1.80;1.70;;;22.20;58.80;;;;;;5076302;28;20159;-87
2023/07/13 11:55:16;;;;;;;1.63;1.52;;;22.20;58.70;;;;;;5078387;28;20153;-84
2023/07/13 11:57:48;;;;;;;1.75;1.65;;;22.30;58.70;;;;;;5096764;28;20623;-89
2023/07/13 12:00:17;;;;;;;2.08;1.88;;;22.30;58.60;;;;;;5061505;28;20672;-85
2023/07/13 12:02:45;;;;;;;2.00;1.90;;;22.30;58.60;;;;;;5096191;28;20185;-86
2023/07/13 12:05:14;;;;;;;1.63;1.52;;;22.30;58.60;;;;;;5096625;28;20600;-85
2023/07/13 12:07:40;;;;;;;2.00;1.83;;;22.20;58.50;;;;;;5078381;28;20678;-85
2023/07/13 12:10:21;;;;;;;2.17;1.98;;;22.20;58.30;;;;;;5061304;28;20213;-84
2023/07/13 12:12:56;;;;;;;2.10;1.90;;;22.20;58.50;;;;;;5096154;28;20172;-85
2023/07/13 12:15:23;;;;;;;2.45;1.80;;;22.20;58.30;;;;;;5044814;28;20245;-85
2023/07/13 12:17:49;;;;;;;1.85;1.73;;;22.20;58.40;;;;;;5061271;28;20168;-85
2023/07/13 12:20:23;;;;;;;1.77;1.63;;;22.20;58.20;;;;;;5096155;28;20195;-85
2023/07/13 12:22:53;;;;;;;1.88;1.77;;;22.30;58.30;;;;;;5096075;28;20232;-83
2023/07/13 12:25:23;;;;;;;2.00;1.80;;;22.20;58.30;;;;;;5043974;28;20259;-88
2023/07/13 12:27:53;;;;;;;1.80;1.70;;;22.20;58.30;;;;;;5027750;28;20180;-89
2023/07/13 12:30:28;;;;;;;1.70;1.60;;;22.30;58.30;;;;;;5011206;28;20310;-86
2023/07/13 12:33:01;;;;;;;1.63;1.52;;;22.20;58.30;;;;;;5095915;28;20159;-85
2023/07/13 12:35:29;;;;;;;1.90;1.80;;;22.20;58.20;;;;;;5027721;28;20176;-86
2023/07/13 12:37:57;;;;;;;2.10;1.90;;;22.20;58.20;;;;;;5057459;28;20217;-83
2023/07/13 12:40:32;;;;;;;1.80;1.70;;;22.30;58.10;;;;;;5058033;28;20235;-84
2023/07/13 12:42:58;;;;;;;1.95;1.75;;;22.20;58.10;;;;;;5074228;28;20242;-82
2023/07/13 12:45:26;;;;;;;1.98;1.88;;;22.20;58.10;;;;;;5074363;28;20527;-88
2023/07/13 12:48:15;;;;;;;1.90;1.80;;;22.20;58.10;;;;;;5057300;28;20256;-83
2023/07/13 12:50:47;;;;;;;2.10;1.90;;;22.20;58.00;;;;;;5074170;28;20612;-86
2023/07/13 12:53:15;;;;;;;1.63;1.52;;;22.30;57.90;;;;;;5024351;28;20504;-85
2023/07/13 12:55:43;;;;;;;1.70;1.60;;;22.30;57.60;;;;;;5074178;28;20608;-86
2023/07/13 12:58:13;;;;;;;1.80;1.70;;;22.40;57.60;;;;;;5057176;28;20185;-85